createdAt,value
2018-11-22T12:16:06.334Z,6.00
2018-11-22T12:18:37.056Z,6.00
2018-11-22T12:21:04.785Z,6.00
2018-11-22T12:23:33.842Z,6.00
2018-11-22T12:26:02.946Z,6.10
2018-11-22T12:28:32.679Z,6.10
2018-11-22T12:31:08.644Z,6.10
2018-11-22T12:33:38.684Z,6.20
2018-11-22T12:36:13.150Z,6.20
2018-11-22T12:38:43.405Z,6.20
2018-11-22T12:41:12.525Z,6.20
2018-11-22T12:43:42.102Z,6.20
2018-11-22T12:46:11.168Z,6.20
2018-11-22T12:48:40.882Z,6.20
2018-11-22T12:51:10.109Z,6.30
2018-11-22T12:53:39.340Z,6.20
2018-11-22T12:56:08.506Z,6.30
2018-11-22T12:58:37.687Z,6.30
2018-11-22T13:01:06.918Z,6.20
2018-11-22T13:03:36.184Z,6.20
2018-11-22T13:06:06.138Z,6.20
2018-11-22T13:08:35.236Z,6.30
2018-11-22T13:11:04.949Z,6.30
2018-11-22T13:13:34.052Z,6.20
2018-11-22T13:16:03.150Z,6.20
2018-11-22T13:18:36.236Z,6.10
2018-11-22T13:21:05.880Z,6.10
2018-11-22T13:23:34.996Z,6.20
2018-11-22T13:26:04.156Z,6.20
2018-11-22T13:28:33.388Z,6.20
2018-11-22T13:31:02.495Z,6.20
2018-11-22T13:33:31.555Z,6.20
2018-11-22T13:36:00.650Z,6.20
2018-11-22T13:38:29.857Z,6.20
2018-11-22T13:40:58.958Z,6.10
2018-11-22T13:43:28.044Z,6.10
2018-11-22T13:45:57.590Z,6.00
2018-11-22T13:48:26.756Z,6.00
2018-11-22T13:50:55.957Z,6.00
2018-11-22T13:53:25.259Z,6.10
2018-11-22T13:56:01.243Z,6.00
2018-11-22T13:58:30.367Z,6.00
2018-11-22T14:00:59.489Z,5.90
2018-11-22T14:03:28.643Z,5.90
2018-11-22T14:05:57.744Z,5.90
2018-11-22T14:08:26.787Z,5.90
2018-11-22T14:10:58.566Z,5.80
2018-11-22T14:13:25.043Z,5.70
2018-11-22T14:15:54.172Z,5.60
2018-11-22T14:18:23.821Z,5.70
2018-11-22T14:20:52.952Z,5.60
2018-11-22T14:23:22.138Z,5.60
2018-11-22T14:25:51.326Z,5.50
2018-11-22T14:28:20.549Z,5.40
2018-11-22T14:30:49.698Z,5.40
2018-11-22T14:33:18.797Z,5.40
2018-11-22T14:35:47.924Z,5.30
2018-11-22T14:38:17.057Z,5.30
2018-11-22T14:40:46.960Z,5.30
2018-11-22T14:43:16.154Z,5.30
2018-11-22T14:45:45.502Z,5.40
2018-11-22T14:48:14.599Z,5.40
2018-11-22T14:50:47.148Z,5.30
2018-11-22T14:53:20.903Z,5.20
2018-11-22T14:55:50.140Z,5.20
2018-11-22T14:58:19.336Z,5.20
2018-11-22T15:00:48.556Z,5.20
2018-11-22T15:03:18.453Z,5.20
2018-11-22T15:05:47.589Z,5.20
2018-11-22T15:08:16.733Z,5.20
2018-11-22T15:10:45.862Z,5.30
2018-11-22T15:13:15.156Z,5.50
2018-11-22T15:15:44.856Z,5.50
2018-11-22T15:18:13.965Z,5.50
2018-11-22T15:20:43.112Z,5.50
2018-11-22T15:23:12.290Z,5.60
2018-11-22T15:25:42.149Z,5.60
2018-11-22T15:28:11.418Z,5.60
2018-11-22T15:30:40.525Z,5.60
2018-11-22T15:33:09.877Z,5.60
2018-11-22T15:35:39.011Z,5.60
2018-11-22T15:38:08.131Z,5.70
2018-11-22T15:40:37.300Z,5.70
2018-11-22T15:43:06.432Z,5.70
2018-11-22T15:45:35.997Z,5.70
2018-11-22T15:48:04.901Z,5.70
2018-11-22T15:50:34.052Z,5.60
2018-11-22T15:53:03.251Z,5.50
2018-11-22T15:55:32.370Z,5.40
2018-11-22T15:58:02.276Z,5.40
2018-11-22T16:00:32.774Z,5.30
2018-11-22T16:03:02.309Z,5.30
2018-11-22T16:05:32.177Z,5.30
2018-11-22T16:08:01.292Z,5.30
2018-11-22T16:10:32.034Z,5.30
2018-11-22T16:13:08.340Z,5.20
2018-11-22T16:15:44.335Z,5.20
2018-11-22T16:18:13.450Z,5.20
2018-11-22T16:20:43.977Z,5.20
2018-11-22T16:23:13.159Z,5.30
2018-11-22T16:25:42.258Z,5.30
2018-11-22T16:28:11.312Z,5.20
2018-11-22T16:30:41.233Z,5.10
2018-11-22T16:33:10.581Z,5.00
2018-11-22T16:35:39.634Z,5.00
2018-11-22T16:38:09.277Z,5.00
2018-11-22T16:40:38.374Z,4.90
2018-11-22T16:43:07.581Z,4.90
2018-11-22T16:45:37.934Z,4.90
2018-11-22T16:48:09.208Z,4.90
2018-11-22T16:50:39.508Z,4.90
2018-11-22T16:53:08.802Z,4.90
2018-11-22T16:55:37.906Z,4.70
2018-11-22T16:58:07.492Z,4.60
2018-11-22T17:00:37.783Z,4.50
2018-11-22T17:03:10.562Z,4.40
2018-11-22T17:05:40.011Z,4.40
2018-11-22T17:08:09.647Z,4.40
2018-11-22T17:10:39.359Z,4.40
2018-11-22T17:13:08.597Z,4.50
2018-11-22T17:15:39.706Z,4.50
2018-11-22T17:18:09.789Z,4.40
2018-11-22T17:20:38.896Z,4.40
2018-11-22T17:23:08.433Z,4.30
2018-11-22T17:25:38.704Z,4.30
2018-11-22T17:28:08.877Z,4.20
2018-11-22T17:30:41.477Z,4.20
2018-11-22T17:33:10.627Z,4.30
2018-11-22T17:35:40.466Z,4.30
2018-11-22T17:38:10.472Z,4.30
2018-11-22T17:40:43.201Z,4.20
2018-11-22T17:43:12.418Z,4.10
2018-11-22T17:45:43.189Z,3.90
2018-11-22T17:48:13.195Z,3.80
2018-11-22T17:50:43.901Z,3.60
2018-11-22T17:53:13.951Z,3.40
2018-11-22T17:55:43.186Z,3.30
2018-11-22T17:58:13.639Z,3.30
2018-11-22T18:00:57.444Z,3.20
2018-11-22T18:03:26.624Z,3.10
2018-11-22T18:05:55.792Z,3.00
2018-11-22T18:08:25.006Z,2.90
2018-11-22T18:10:54.525Z,2.80
2018-11-22T18:13:23.867Z,2.70
2018-11-22T18:15:57.000Z,2.60
2018-11-22T18:18:26.957Z,2.60
2018-11-22T18:20:56.165Z,2.60
2018-11-22T18:23:25.283Z,2.70
2018-11-22T18:25:54.484Z,2.70
2018-11-22T18:28:24.649Z,2.80
2018-11-22T18:30:53.989Z,2.90
2018-11-22T18:33:23.130Z,3.00
2018-11-22T18:35:52.811Z,3.10
2018-11-22T18:38:22.092Z,3.10
2018-11-22T18:40:51.443Z,3.10
2018-11-22T18:43:20.794Z,3.00
2018-11-22T18:45:50.493Z,2.90
2018-11-22T18:48:20.483Z,2.90
2018-11-22T18:50:50.067Z,2.90
2018-11-22T18:53:19.196Z,3.00
2018-11-22T18:55:48.430Z,3.00
2018-11-22T18:58:17.696Z,3.20
2018-11-22T19:00:48.090Z,3.30
2018-11-22T19:03:18.682Z,3.40
2018-11-22T19:05:48.282Z,3.60
2018-11-22T19:08:17.652Z,3.70
2018-11-22T19:10:47.067Z,3.70
2018-11-22T19:13:17.109Z,3.80
2018-11-22T19:15:47.230Z,3.80
2018-11-22T19:18:17.446Z,3.90
2018-11-22T19:20:47.059Z,3.90
2018-11-22T19:23:16.836Z,3.90
2018-11-22T19:25:45.921Z,3.80
2018-11-22T19:28:15.816Z,3.80
2018-11-22T19:30:46.638Z,3.60
2018-11-22T19:33:17.206Z,3.40
2018-11-22T19:35:48.357Z,3.30
2018-11-22T19:38:17.998Z,3.10
2018-11-22T19:40:47.201Z,2.90
2018-11-22T19:43:16.413Z,2.70
2018-11-22T19:45:47.447Z,2.60
2018-11-22T19:48:16.921Z,2.50
2018-11-22T19:50:46.063Z,2.40
2018-11-22T19:53:16.346Z,2.30
2018-11-22T19:55:45.839Z,2.20
2018-11-22T19:58:16.282Z,2.10
2018-11-22T20:00:45.461Z,2.10
2018-11-22T20:03:15.562Z,2.00
2018-11-22T20:05:45.417Z,2.00
2018-11-22T20:08:17.374Z,1.90
2018-11-22T20:10:47.251Z,1.90
2018-11-22T20:13:17.220Z,1.80
2018-11-22T20:15:46.705Z,1.80
2018-11-22T20:18:15.872Z,1.80
2018-11-22T20:20:49.522Z,1.80
2018-11-22T20:23:17.630Z,1.80
2018-11-22T20:25:43.792Z,1.80
2018-11-22T20:28:13.095Z,1.70
2018-11-22T20:30:43.602Z,1.70
2018-11-22T20:33:12.714Z,1.80
2018-11-22T20:35:41.910Z,1.70
2018-11-22T20:38:11.242Z,1.70
2018-11-22T20:40:40.434Z,1.70
2018-11-22T20:43:09.695Z,1.70
2018-11-22T20:45:40.915Z,1.70
2018-11-22T20:48:08.714Z,1.60
2018-11-22T20:50:38.356Z,1.60
2018-11-22T20:53:07.863Z,1.60
2018-11-22T20:55:38.486Z,1.50
2018-11-22T20:58:07.973Z,1.50
2018-11-22T21:00:38.755Z,1.40
2018-11-22T21:03:08.753Z,1.40
2018-11-22T21:05:38.018Z,1.40
2018-11-22T21:08:07.201Z,1.40
2018-11-22T21:10:36.421Z,1.40
2018-11-22T21:13:05.971Z,1.40
2018-11-22T21:15:39.315Z,1.40
2018-11-22T21:18:09.224Z,1.40
2018-11-22T21:20:40.603Z,1.40
2018-11-22T21:23:10.045Z,1.40
2018-11-22T21:25:39.309Z,1.30
2018-11-22T21:28:15.315Z,1.30
2018-11-22T21:30:45.549Z,1.20
2018-11-22T21:33:15.012Z,1.20
2018-11-22T21:35:44.264Z,1.20
2018-11-22T21:38:13.433Z,1.10
2018-11-22T21:40:42.720Z,1.10
2018-11-22T21:43:11.834Z,1.20
2018-11-22T21:45:40.947Z,1.10
2018-11-22T21:48:10.873Z,1.10
2018-11-22T21:50:39.939Z,1.10
2018-11-22T21:53:09.982Z,1.10
2018-11-22T21:55:39.350Z,1.00
2018-11-22T21:58:08.659Z,1.10
2018-11-22T22:00:39.538Z,1.10
2018-11-22T22:03:10.027Z,1.10
2018-11-22T22:05:40.166Z,1.10
2018-11-22T22:08:09.498Z,1.00
2018-11-22T22:10:38.626Z,1.00
2018-11-22T22:13:07.873Z,1.00
2018-11-22T22:15:37.685Z,1.00
2018-11-22T22:18:08.625Z,1.00
2018-11-22T22:20:38.142Z,1.00
2018-11-22T22:23:13.215Z,1.00
2018-11-22T22:25:36.419Z,1.00
2018-11-22T22:28:05.816Z,1.00
2018-11-22T22:30:35.506Z,1.10
2018-11-22T22:33:05.968Z,1.10
2018-11-22T22:35:35.058Z,1.20
2018-11-22T22:38:05.088Z,1.10
2018-11-22T22:40:34.410Z,1.00
2018-11-22T22:43:03.688Z,1.00
2018-11-22T22:45:33.585Z,0.90
2018-11-22T22:48:03.028Z,0.90
2018-11-22T22:50:33.317Z,0.90
2018-11-22T22:53:02.397Z,0.80
2018-11-22T22:55:31.720Z,0.80
2018-11-22T22:58:00.963Z,0.80
2018-11-22T23:00:50.562Z,0.80
2018-11-22T23:03:19.654Z,0.80
2018-11-22T23:05:49.095Z,0.80
2018-11-22T23:08:18.237Z,0.80
2018-11-22T23:10:47.319Z,0.80
2018-11-22T23:13:16.616Z,0.70
2018-11-22T23:15:45.821Z,0.70
2018-11-22T23:18:15.057Z,0.70
2018-11-22T23:20:44.123Z,0.70
2018-11-22T23:23:13.935Z,0.70
2018-11-22T23:25:43.063Z,0.60
2018-11-22T23:28:12.217Z,0.60
2018-11-22T23:30:41.710Z,0.60
2018-11-22T23:33:18.153Z,0.60
2018-11-22T23:35:47.386Z,0.70
2018-11-22T23:38:16.636Z,0.80
2018-11-22T23:40:45.745Z,0.90
2018-11-22T23:43:15.124Z,0.80
2018-11-22T23:45:44.497Z,0.80
2018-11-22T23:48:13.928Z,0.90
2018-11-22T23:50:43.307Z,0.90
2018-11-22T23:53:18.404Z,0.80
2018-11-22T23:55:47.680Z,0.80
2018-11-22T23:58:17.418Z,0.80
